createdAt,value
2022-10-19T00:01:12.648Z,16.35
2022-10-19T00:06:17.348Z,15.38
2022-10-19T00:11:18.918Z,14.70
2022-10-19T00:16:21.535Z,14.73
2022-10-19T00:21:23.045Z,15.20
2022-10-19T00:26:26.183Z,13.30
2022-10-19T00:31:28.088Z,13.57
2022-10-19T00:36:34.887Z,12.38
2022-10-19T00:41:37.461Z,11.88
2022-10-19T00:46:40.871Z,10.55
2022-10-19T00:51:45.410Z,11.48
2022-10-19T00:56:48.936Z,11.68
2022-10-19T01:01:50.861Z,11.00
2022-10-19T01:06:53.829Z,11.00
2022-10-19T01:12:06.463Z,10.98
2022-10-19T01:17:18.433Z,10.90
2022-10-19T01:22:44.666Z,10.82
2022-10-19T01:28:06.354Z,11.20
2022-10-19T01:33:29.271Z,10.05
2022-10-19T01:38:58.619Z,10.38
2022-10-19T01:44:16.756Z,11.23
2022-10-19T01:49:25.439Z,10.60
2022-10-19T01:54:30.602Z,10.30
2022-10-19T01:59:33.114Z,10.02
2022-10-19T02:04:35.213Z,10.30
2022-10-19T02:09:36.847Z,9.57
2022-10-19T02:14:44.494Z,10.25
2022-10-19T02:19:45.972Z,10.73
2022-10-19T02:24:47.479Z,10.25
2022-10-19T02:29:49.075Z,9.73
2022-10-19T02:34:50.594Z,9.65
2022-10-19T02:39:52.139Z,8.88
2022-10-19T02:44:58.669Z,9.18
2022-10-19T02:50:00.390Z,8.98
2022-10-19T02:55:01.964Z,8.55
2022-10-19T03:00:06.177Z,7.53
2022-10-19T03:05:08.826Z,8.10
2022-10-19T03:10:10.380Z,8.00
2022-10-19T03:15:15.807Z,7.35
2022-10-19T03:20:17.382Z,7.35
2022-10-19T03:25:19.027Z,8.48
2022-10-19T03:30:20.494Z,7.38
2022-10-19T03:35:21.973Z,7.80
2022-10-19T03:40:23.453Z,7.18
2022-10-19T03:45:24.964Z,8.00
2022-10-19T03:50:26.495Z,7.50
2022-10-19T03:55:27.992Z,7.50
2022-10-19T04:00:29.498Z,8.10
2022-10-19T04:05:31.001Z,7.85
2022-10-19T04:10:32.548Z,8.48
2022-10-19T04:15:34.057Z,7.80
2022-10-19T04:20:35.552Z,7.38
2022-10-19T04:25:37.067Z,8.05
2022-10-19T04:30:38.558Z,8.30
2022-10-19T04:35:40.063Z,8.50
2022-10-19T04:40:41.549Z,8.68
2022-10-19T04:45:43.054Z,7.45
2022-10-19T04:50:44.541Z,7.88
2022-10-19T04:55:54.609Z,7.50
2022-10-19T05:00:56.120Z,7.00
2022-10-19T05:05:59.180Z,8.73
2022-10-19T05:11:07.440Z,8.40
2022-10-19T05:16:12.317Z,8.38
2022-10-19T05:21:14.980Z,7.30
2022-10-19T05:26:18.525Z,7.88
2022-10-19T05:31:20.716Z,7.85
2022-10-19T05:36:27.406Z,8.00
2022-10-19T05:41:29.164Z,8.65
2022-10-19T05:46:31.332Z,7.68
2022-10-19T05:51:33.037Z,8.63
2022-10-19T05:56:34.688Z,8.38
2022-10-19T06:01:37.002Z,11.25
2022-10-19T06:06:38.531Z,8.20
2022-10-19T06:11:41.393Z,7.70
2022-10-19T06:16:42.925Z,8.20
2022-10-19T06:21:45.935Z,7.97
2022-10-19T06:26:47.727Z,7.40
2022-10-19T06:31:49.363Z,7.50
2022-10-19T06:36:50.862Z,6.88
2022-10-19T06:41:52.415Z,6.68
2022-10-19T06:46:53.935Z,6.85
2022-10-19T06:51:55.533Z,5.55
2022-10-19T06:56:57.088Z,6.47
2022-10-19T07:01:58.573Z,5.78
2022-10-19T07:07:00.061Z,5.20
2022-10-19T07:12:01.585Z,5.15
2022-10-19T07:17:03.117Z,4.40
2022-10-19T07:22:04.771Z,4.80
2022-10-19T07:27:06.293Z,5.20
2022-10-19T07:32:07.779Z,4.63
2022-10-19T07:37:09.252Z,30.33
2022-10-19T07:42:10.771Z,4.90
2022-10-19T07:47:12.371Z,4.43
2022-10-19T07:52:13.906Z,3.92
2022-10-19T07:57:15.982Z,3.40
2022-10-19T08:02:18.006Z,3.30
2022-10-19T08:07:19.534Z,3.00
2022-10-19T08:12:21.090Z,3.58
2022-10-19T08:17:22.592Z,2.85
2022-10-19T08:22:24.079Z,2.90
2022-10-19T08:27:25.667Z,3.20
2022-10-19T08:32:27.311Z,2.72
2022-10-19T08:37:40.802Z,3.20
2022-10-19T08:43:02.194Z,3.20
2022-10-19T08:48:14.439Z,3.25
2022-10-19T08:53:19.389Z,3.17
2022-10-19T08:58:27.605Z,3.00
2022-10-19T09:08:59.914Z,2.92
2022-10-19T09:14:13.248Z,2.85
2022-10-19T09:19:26.244Z,2.50
2022-10-19T09:24:36.636Z,3.10
2022-10-19T09:29:48.202Z,2.50
2022-10-19T09:35:02.391Z,2.30
2022-10-19T09:40:05.969Z,2.72
2022-10-19T09:45:16.487Z,2.83
2022-10-19T09:50:26.919Z,2.83
2022-10-19T09:55:44.889Z,2.67
2022-10-19T10:00:50.506Z,2.20
2022-10-19T10:05:52.722Z,2.15
2022-10-19T10:10:58.081Z,1.80
2022-10-19T10:16:01.558Z,1.77
2022-10-19T10:21:25.516Z,2.15
2022-10-19T10:26:28.238Z,1.58
2022-10-19T10:31:30.357Z,1.98
2022-10-19T10:36:32.029Z,1.83
2022-10-19T10:41:38.979Z,1.48
2022-10-19T10:46:50.805Z,1.50
2022-10-19T10:51:56.209Z,1.42
2022-10-19T10:57:13.993Z,1.58
2022-10-19T11:02:40.471Z,1.45
2022-10-19T11:07:45.075Z,1.67
2022-10-19T11:12:51.863Z,1.30
2022-10-19T11:18:16.972Z,1.30
2022-10-19T11:23:33.889Z,1.30
2022-10-19T11:29:03.041Z,1.02
2022-10-19T11:34:16.252Z,1.08
2022-10-19T11:39:40.913Z,0.98
2022-10-19T11:44:51.794Z,1.00
2022-10-19T11:49:53.198Z,0.98
2022-10-19T11:55:48.670Z,1.10
2022-10-19T12:01:02.483Z,1.13
2022-10-19T12:06:20.434Z,0.95
2022-10-19T12:12:00.358Z,1.00
2022-10-19T12:17:06.877Z,1.20
2022-10-19T12:22:15.437Z,1.00
2022-10-19T12:27:18.588Z,0.88
2022-10-19T12:32:23.058Z,0.82
2022-10-19T12:38:18.466Z,0.80
2022-10-19T12:43:27.890Z,0.82
2022-10-19T12:48:29.385Z,0.70
2022-10-19T12:53:38.227Z,1.10
2022-10-19T12:58:51.076Z,1.10
2022-10-19T13:04:12.121Z,0.70
2022-10-19T13:09:27.009Z,1.17
2022-10-19T13:14:50.228Z,0.90
2022-10-19T13:20:14.564Z,1.50
2022-10-19T13:25:16.054Z,1.00
2022-10-19T13:30:35.660Z,0.90
2022-10-19T13:35:37.151Z,0.80
2022-10-19T13:41:00.065Z,1.17
2022-10-19T13:46:13.961Z,0.80
2022-10-19T13:51:27.451Z,1.17
2022-10-19T13:56:42.044Z,1.00
2022-10-19T14:02:21.152Z,1.20
2022-10-19T14:07:26.664Z,1.17
2022-10-19T14:12:29.882Z,0.90
2022-10-19T14:17:42.310Z,0.90
2022-10-19T14:22:44.063Z,1.25
2022-10-19T14:27:46.637Z,1.17
2022-10-19T14:32:48.262Z,1.10
2022-10-19T14:37:50.145Z,0.88
2022-10-19T14:42:51.679Z,1.17
2022-10-19T14:48:01.950Z,1.40
2022-10-19T14:53:42.262Z,1.40
2022-10-19T14:58:54.304Z,1.10
2022-10-19T15:03:56.242Z,1.35
2022-10-19T15:09:04.344Z,1.38
2022-10-19T15:14:08.980Z,1.08
2022-10-19T15:19:26.435Z,1.35
2022-10-19T15:24:28.308Z,1.33
2022-10-19T15:29:29.957Z,1.27
2022-10-19T15:34:31.561Z,1.10
2022-10-19T15:39:41.022Z,1.20
2022-10-19T15:44:44.956Z,1.00
2022-10-19T15:49:46.918Z,1.33
2022-10-19T15:54:53.772Z,1.20
2022-10-19T15:59:57.019Z,1.15
2022-10-19T16:04:58.609Z,1.05
2022-10-19T16:10:00.161Z,1.35
2022-10-19T16:15:01.716Z,1.20
2022-10-19T16:20:03.787Z,1.38
2022-10-19T16:25:05.730Z,1.20
2022-10-19T16:30:07.987Z,1.30
2022-10-19T16:35:10.152Z,1.50
2022-10-19T16:40:11.779Z,1.38
2022-10-19T16:45:13.378Z,1.63
2022-10-19T16:50:15.125Z,1.65
2022-10-19T16:55:16.767Z,1.40
2022-10-19T17:00:18.361Z,1.42
2022-10-19T17:05:19.901Z,1.70
2022-10-19T17:10:21.591Z,1.60
2022-10-19T17:15:41.945Z,1.88
2022-10-19T17:20:44.351Z,1.83
2022-10-19T17:25:49.109Z,1.80
2022-10-19T17:30:52.301Z,1.75
2022-10-19T17:35:53.788Z,1.55
2022-10-19T17:40:55.351Z,2.00
2022-10-19T17:45:59.097Z,2.10
2022-10-19T17:51:06.214Z,2.03
2022-10-19T17:56:08.452Z,2.33
2022-10-19T18:01:11.178Z,2.15
2022-10-19T18:06:18.250Z,2.20
2022-10-19T18:11:22.583Z,2.28
2022-10-19T18:16:30.007Z,2.70
2022-10-19T18:21:34.433Z,2.65
2022-10-19T18:26:36.125Z,3.10
2022-10-19T18:31:38.529Z,2.60
2022-10-19T18:36:40.233Z,3.40
2022-10-19T18:41:41.794Z,3.22
2022-10-19T18:46:43.350Z,3.47
2022-10-19T18:51:50.639Z,3.20
2022-10-19T18:56:55.906Z,2.67
2022-10-19T19:01:57.470Z,3.05
2022-10-19T19:06:59.043Z,2.55
2022-10-19T19:12:01.138Z,3.00
2022-10-19T19:17:02.686Z,2.95
2022-10-19T19:22:08.645Z,3.25
2022-10-19T19:27:10.504Z,3.28
2022-10-19T19:32:12.023Z,2.80
2022-10-19T19:37:14.259Z,2.90
2022-10-19T19:42:16.321Z,2.80
2022-10-19T19:47:19.341Z,3.03
2022-10-19T19:52:20.904Z,3.28
2022-10-19T19:57:22.884Z,2.92
2022-10-19T20:02:24.390Z,3.40
2022-10-19T20:07:27.005Z,3.40
2022-10-19T20:12:29.256Z,3.80
2022-10-19T20:17:30.748Z,4.05
2022-10-19T20:22:32.305Z,3.80
2022-10-19T20:27:37.017Z,3.70
2022-10-19T20:32:38.925Z,3.85
2022-10-19T20:37:40.691Z,3.58
2022-10-19T20:42:43.852Z,4.00
2022-10-19T20:47:45.335Z,4.10
2022-10-19T20:52:46.852Z,4.43
2022-10-19T20:57:48.479Z,3.90
2022-10-19T21:02:50.111Z,4.10
2022-10-19T21:07:52.753Z,4.35
2022-10-19T21:12:54.256Z,4.43
2022-10-19T21:17:55.723Z,4.15
2022-10-19T21:22:58.153Z,3.88
2022-10-19T21:27:59.667Z,3.50
2022-10-19T21:33:01.200Z,4.00
2022-10-19T21:38:02.735Z,4.47
2022-10-19T21:43:04.642Z,4.50
2022-10-19T21:48:06.264Z,4.55
2022-10-19T21:53:07.780Z,4.30
2022-10-19T21:58:09.274Z,4.38
2022-10-19T22:03:10.967Z,3.35
2022-10-19T22:08:12.461Z,3.47
2022-10-19T22:13:14.062Z,3.67
2022-10-19T22:18:15.808Z,3.28
2022-10-19T22:23:17.435Z,3.42
2022-10-19T22:28:18.909Z,3.55
2022-10-19T22:33:20.941Z,3.53
2022-10-19T22:38:23.103Z,4.03
2022-10-19T22:43:24.627Z,4.03
2022-10-19T22:48:26.261Z,3.80
2022-10-19T22:53:27.781Z,3.22
2022-10-19T22:58:29.265Z,3.40
2022-10-19T23:03:30.864Z,3.30
2022-10-19T23:08:32.426Z,3.50
2022-10-19T23:13:33.964Z,3.30
2022-10-19T23:18:37.339Z,2.80
2022-10-19T23:23:39.342Z,2.80
2022-10-19T23:28:43.053Z,2.78
2022-10-19T23:33:44.737Z,2.70
2022-10-19T23:38:48.120Z,2.90
2022-10-19T23:43:49.604Z,2.65
2022-10-19T23:48:51.076Z,2.95
2022-10-19T23:53:53.303Z,3.20
2022-10-19T23:58:55.666Z,2.72
